createdAt,value
2017-03-02T00:00:38.576Z,18.57
2017-03-02T00:01:39.752Z,18.57
2017-03-02T00:02:53.694Z,18.57
2017-03-02T00:03:32.845Z,18.62
2017-03-02T00:04:37.564Z,18.57
2017-03-02T00:05:36.314Z,18.57
2017-03-02T00:06:33.736Z,18.57
2017-03-02T00:07:42.083Z,18.57
2017-03-02T00:08:42.849Z,18.57
2017-03-02T00:09:36.466Z,18.57
2017-03-02T00:10:39.026Z,18.57
2017-03-02T00:11:35.056Z,18.56
2017-03-02T00:12:47.893Z,18.56
2017-03-02T00:13:37.672Z,18.56
2017-03-02T00:14:37.656Z,18.56
2017-03-02T00:15:35.070Z,18.56
2017-03-02T00:16:37.855Z,18.60
2017-03-02T00:17:42.156Z,18.56
2017-03-02T00:18:43.484Z,18.63
2017-03-02T00:19:34.957Z,18.60
2017-03-02T00:20:42.852Z,18.56
2017-03-02T00:22:42.742Z,18.55
2017-03-02T00:23:37.904Z,18.54
2017-03-02T00:24:34.291Z,18.55
2017-03-02T00:25:39.048Z,18.62
2017-03-02T00:26:53.236Z,18.55
2017-03-02T00:27:50.981Z,18.55
2017-03-02T00:28:47.402Z,18.54
2017-03-02T00:29:52.103Z,18.55
2017-03-02T00:30:42.269Z,18.55
2017-03-02T00:31:43.310Z,18.55
2017-03-02T00:32:32.525Z,18.55
2017-03-02T00:33:48.269Z,18.54
2017-03-02T00:34:43.501Z,18.55
2017-03-02T00:35:38.529Z,18.55
2017-03-02T00:36:43.914Z,18.55
2017-03-02T00:37:48.496Z,18.55
2017-03-02T00:38:39.088Z,18.55
2017-03-02T00:39:34.066Z,18.56
2017-03-02T00:40:41.131Z,18.55
2017-03-02T00:41:43.941Z,18.54
2017-03-02T00:42:43.958Z,18.55
2017-03-02T00:43:28.837Z,18.54
2017-03-02T00:44:34.312Z,18.55
2017-03-02T00:45:46.805Z,18.55
2017-03-02T00:46:41.980Z,18.54
2017-03-02T00:47:37.592Z,18.55
2017-03-02T00:48:33.949Z,18.55
2017-03-02T00:49:38.647Z,18.54
2017-03-02T00:50:39.496Z,18.58
2017-03-02T00:51:40.497Z,18.54
2017-03-02T00:52:48.337Z,18.55
2017-03-02T00:53:48.264Z,18.54
2017-03-02T00:54:53.158Z,18.54
2017-03-02T00:55:33.472Z,18.54
2017-03-02T00:56:42.541Z,18.54
2017-03-02T00:57:52.736Z,18.54
2017-03-02T00:58:32.873Z,18.54
2017-03-02T00:59:43.483Z,18.53
2017-03-02T01:00:43.473Z,18.53
2017-03-02T01:01:33.127Z,18.52
2017-03-02T01:02:28.566Z,18.53
2017-03-02T01:03:48.276Z,18.53
2017-03-02T01:04:40.152Z,18.53
2017-03-02T01:05:34.646Z,18.58
2017-03-02T01:06:37.604Z,18.53
2017-03-02T01:07:32.939Z,18.53
2017-03-02T01:08:33.522Z,18.52
2017-03-02T01:09:38.515Z,18.52
2017-03-02T01:10:47.702Z,18.53
2017-03-02T01:11:28.355Z,18.52
2017-03-02T01:12:52.802Z,18.52
2017-03-02T01:13:43.239Z,18.53
2017-03-02T01:14:37.836Z,18.53
2017-03-02T01:15:34.341Z,18.53
2017-03-02T01:16:44.870Z,18.53
2017-03-02T01:17:45.129Z,18.52
2017-03-02T01:18:46.629Z,18.52
2017-03-02T01:19:40.759Z,18.52
2017-03-02T01:20:49.001Z,18.52
2017-03-02T01:21:41.805Z,18.52
2017-03-02T01:22:39.047Z,18.53
2017-03-02T01:23:51.991Z,18.51
2017-03-02T01:24:41.484Z,18.52
2017-03-02T01:25:31.343Z,18.52
2017-03-02T01:26:30.551Z,18.53
2017-03-02T01:27:37.564Z,18.53
2017-03-02T01:28:33.179Z,18.53
2017-03-02T01:29:33.701Z,18.52
2017-03-02T01:30:31.712Z,18.52
2017-03-02T01:31:31.246Z,18.51
2017-03-02T01:32:21.876Z,18.52
2017-03-02T01:33:46.126Z,18.51
2017-03-02T01:34:34.583Z,18.51
2017-03-02T01:35:54.540Z,18.52
2017-03-02T01:36:29.585Z,18.52
2017-03-02T01:37:43.083Z,18.52
2017-03-02T01:38:34.543Z,18.52
2017-03-02T01:39:36.871Z,18.52
2017-03-02T01:40:26.575Z,18.52
2017-03-02T01:41:46.579Z,18.52
2017-03-02T01:42:28.992Z,18.51
2017-03-02T01:43:46.603Z,18.52
2017-03-02T01:44:56.585Z,18.51
2017-03-02T01:45:54.800Z,18.51
2017-03-02T01:46:51.419Z,18.54
2017-03-02T01:47:48.250Z,18.52
2017-03-02T01:48:53.525Z,18.51
2017-03-02T01:49:54.297Z,18.52
2017-03-02T01:50:56.697Z,18.51
2017-03-02T01:51:45.404Z,18.52
2017-03-02T01:52:34.703Z,18.52
2017-03-02T01:53:46.594Z,18.52
2017-03-02T01:54:37.789Z,18.51
2017-03-02T01:55:39.315Z,18.51
2017-03-02T01:56:43.176Z,18.52
2017-03-02T01:57:33.838Z,18.51
2017-03-02T01:58:34.620Z,19.03
2017-03-02T01:59:39.252Z,19.07
2017-03-02T02:00:45.510Z,19.09
2017-03-02T02:01:45.090Z,19.11
2017-03-02T02:02:39.603Z,19.13
2017-03-02T02:03:53.368Z,19.12
2017-03-02T02:04:33.769Z,19.13
2017-03-02T02:05:37.338Z,19.13
2017-03-02T02:06:43.282Z,19.12
2017-03-02T02:07:27.297Z,19.13
2017-03-02T02:08:43.971Z,19.14
2017-03-02T02:09:33.141Z,19.13
2017-03-02T02:10:43.680Z,18.62
2017-03-02T02:11:35.218Z,18.58
2017-03-02T02:12:39.124Z,18.55
2017-03-02T02:13:38.092Z,18.54
2017-03-02T02:14:42.805Z,18.54
2017-03-02T02:15:31.895Z,18.52
2017-03-02T02:16:36.602Z,18.52
2017-03-02T02:17:43.573Z,18.52
2017-03-02T02:18:39.659Z,18.52
2017-03-02T02:19:37.363Z,18.51
2017-03-02T02:20:37.393Z,18.51
2017-03-02T02:21:34.429Z,18.51
2017-03-02T02:22:29.257Z,18.52
2017-03-02T02:23:33.679Z,18.54
2017-03-02T02:24:41.885Z,18.51
2017-03-02T02:25:43.011Z,18.50
2017-03-02T02:26:38.251Z,18.50
2017-03-02T02:27:28.295Z,18.51
2017-03-02T02:28:26.344Z,18.51
2017-03-02T02:29:42.563Z,18.51
2017-03-02T02:30:47.396Z,18.51
2017-03-02T02:31:34.121Z,18.55
2017-03-02T02:32:35.931Z,18.50
2017-03-02T02:33:42.554Z,18.51
2017-03-02T02:34:32.234Z,18.50
2017-03-02T02:35:42.512Z,18.50
2017-03-02T02:36:43.834Z,18.50
2017-03-02T02:37:38.839Z,18.54
2017-03-02T02:38:40.828Z,18.50
2017-03-02T02:39:46.887Z,18.50
2017-03-02T02:40:37.530Z,18.50
2017-03-02T02:41:40.847Z,18.51
2017-03-02T02:42:33.479Z,18.50
2017-03-02T02:43:56.141Z,18.50
2017-03-02T02:44:34.050Z,18.50
2017-03-02T02:45:50.454Z,18.50
2017-03-02T02:46:35.293Z,18.51
2017-03-02T02:47:33.685Z,18.99
2017-03-02T02:48:34.661Z,19.06
2017-03-02T02:49:47.176Z,18.58
2017-03-02T02:50:31.146Z,18.55
2017-03-02T02:51:31.564Z,18.52
2017-03-02T02:52:33.577Z,18.52
2017-03-02T02:53:39.537Z,18.51
2017-03-02T02:54:45.039Z,18.51
2017-03-02T02:55:44.639Z,18.57
2017-03-02T02:56:37.459Z,18.51
2017-03-02T02:57:48.533Z,18.50
2017-03-02T02:58:43.460Z,18.53
2017-03-02T02:59:43.126Z,18.51
2017-03-02T03:00:34.307Z,18.50
2017-03-02T03:01:44.012Z,18.51
2017-03-02T03:02:40.133Z,18.51
2017-03-02T03:03:35.084Z,18.50
2017-03-02T03:04:43.648Z,18.50
2017-03-02T03:05:49.179Z,18.51
2017-03-02T03:06:45.696Z,18.50
2017-03-02T03:07:44.720Z,18.50
2017-03-02T03:08:42.751Z,18.50
2017-03-02T03:09:35.676Z,18.51
2017-03-02T03:10:38.199Z,18.51
2017-03-02T03:11:34.713Z,18.50
2017-03-02T03:12:43.601Z,18.50
2017-03-02T03:13:38.700Z,18.50
2017-03-02T03:14:34.942Z,18.50
2017-03-02T03:15:43.570Z,18.50
2017-03-02T03:16:33.886Z,18.50
2017-03-02T03:17:45.596Z,18.50
2017-03-02T03:18:34.910Z,18.51
2017-03-02T03:19:52.075Z,18.50
2017-03-02T03:20:40.502Z,18.51
2017-03-02T03:21:35.283Z,18.50
2017-03-02T03:22:38.092Z,18.50
2017-03-02T03:23:39.732Z,18.50
2017-03-02T03:24:38.902Z,18.50
2017-03-02T03:25:47.960Z,18.50
2017-03-02T03:26:41.746Z,18.50
2017-03-02T03:27:40.053Z,18.49
2017-03-02T03:28:48.211Z,18.49
2017-03-02T03:29:32.181Z,18.49
2017-03-02T03:30:34.814Z,18.50
2017-03-02T03:31:47.629Z,18.49
2017-03-02T03:32:48.682Z,18.49
2017-03-02T03:33:35.318Z,18.49
2017-03-02T03:34:34.072Z,18.50
2017-03-02T03:35:40.708Z,18.49
2017-03-02T03:36:42.861Z,18.49
2017-03-02T03:37:38.386Z,18.49
2017-03-02T03:38:34.784Z,18.49
2017-03-02T03:39:45.867Z,18.49
2017-03-02T03:40:44.190Z,18.49
2017-03-02T03:41:34.515Z,18.49
2017-03-02T03:42:47.228Z,18.49
2017-03-02T03:43:48.240Z,18.50
2017-03-02T03:44:43.380Z,18.54
2017-03-02T03:45:48.627Z,18.49
2017-03-02T03:46:33.188Z,18.50
2017-03-02T03:47:43.779Z,18.51
2017-03-02T03:48:33.870Z,18.50
2017-03-02T03:49:39.145Z,18.49
2017-03-02T03:50:36.290Z,18.50
2017-03-02T03:51:35.510Z,18.50
2017-03-02T03:52:42.657Z,18.50
2017-03-02T03:53:42.041Z,18.50
2017-03-02T03:54:34.951Z,18.50
2017-03-02T03:55:37.497Z,18.50
2017-03-02T03:56:38.593Z,18.50
2017-03-02T03:57:43.600Z,18.50
2017-03-02T03:58:48.173Z,18.50
2017-03-02T03:59:44.224Z,18.50
2017-03-02T04:00:39.634Z,18.50
2017-03-02T04:01:46.327Z,18.49
2017-03-02T04:02:42.485Z,18.50
2017-03-02T04:03:38.374Z,18.49
2017-03-02T04:04:33.860Z,18.50
2017-03-02T04:05:25.188Z,18.50
2017-03-02T04:06:31.320Z,18.49
2017-03-02T04:07:27.553Z,18.50
2017-03-02T04:08:32.690Z,18.50
2017-03-02T04:09:38.646Z,18.50
2017-03-02T04:10:33.755Z,18.50
2017-03-02T04:11:41.745Z,18.50
2017-03-02T04:12:52.940Z,18.51
2017-03-02T04:13:31.510Z,18.51
2017-03-02T04:14:42.293Z,18.50
2017-03-02T04:15:35.380Z,18.54
2017-03-02T04:16:39.455Z,18.50
2017-03-02T04:17:40.458Z,18.49
2017-03-02T04:18:33.246Z,18.50
2017-03-02T04:19:46.609Z,18.50
2017-03-02T04:20:43.798Z,18.50
2017-03-02T04:21:35.051Z,18.50
2017-03-02T04:22:48.849Z,18.49
2017-03-02T04:23:39.573Z,18.49
2017-03-02T04:24:35.541Z,18.50
2017-03-02T04:25:44.603Z,18.50
2017-03-02T04:26:57.562Z,18.49
2017-03-02T04:27:50.788Z,18.50
2017-03-02T04:28:45.769Z,18.49
2017-03-02T04:29:40.275Z,18.55
2017-03-02T04:30:31.724Z,18.49
2017-03-02T04:31:37.812Z,18.49
2017-03-02T04:32:32.984Z,18.50
2017-03-02T04:33:47.383Z,18.49
2017-03-02T04:34:39.703Z,18.49
2017-03-02T04:35:36.652Z,18.49
2017-03-02T04:36:45.733Z,18.50
2017-03-02T04:37:46.776Z,18.49
2017-03-02T04:38:37.963Z,18.49
2017-03-02T04:39:34.205Z,18.49
2017-03-02T04:40:35.252Z,18.50
2017-03-02T04:41:30.996Z,18.49
2017-03-02T04:42:48.524Z,18.50
2017-03-02T04:43:38.102Z,18.49
2017-03-02T04:44:43.328Z,18.50
2017-03-02T04:45:48.465Z,18.50
2017-03-02T04:46:42.536Z,18.49
2017-03-02T04:47:42.657Z,18.50
2017-03-02T04:48:35.159Z,18.50
2017-03-02T04:49:34.119Z,18.50
2017-03-02T04:50:40.579Z,18.49
2017-03-02T04:51:29.137Z,18.50
2017-03-02T04:52:32.327Z,18.49
2017-03-02T04:53:43.575Z,18.50
2017-03-02T04:54:47.039Z,18.49
2017-03-02T04:55:38.215Z,18.49
2017-03-02T04:56:44.427Z,18.50
2017-03-02T04:57:44.774Z,18.49
2017-03-02T04:58:42.225Z,18.49
2017-03-02T04:59:33.688Z,18.49
2017-03-02T05:00:38.301Z,18.49
2017-03-02T05:01:36.153Z,18.49
2017-03-02T05:02:37.771Z,18.49
2017-03-02T05:03:34.705Z,18.49
2017-03-02T05:04:50.917Z,18.48
2017-03-02T05:05:40.474Z,18.49
2017-03-02T05:06:33.946Z,18.49
2017-03-02T05:07:38.170Z,18.49
2017-03-02T05:08:53.041Z,18.49
2017-03-02T05:09:32.032Z,18.50
2017-03-02T05:10:35.173Z,18.50
2017-03-02T05:11:39.280Z,18.49
2017-03-02T05:12:45.415Z,18.49
2017-03-02T05:13:39.847Z,18.50
2017-03-02T05:14:41.132Z,18.49
2017-03-02T05:15:40.506Z,18.57
2017-03-02T05:16:33.601Z,18.49
2017-03-02T05:17:35.357Z,18.49
2017-03-02T05:18:34.281Z,18.49
2017-03-02T05:19:35.234Z,19.00
2017-03-02T05:20:39.931Z,19.05
2017-03-02T05:21:34.251Z,18.69
2017-03-02T05:22:37.044Z,18.57
2017-03-02T05:23:42.856Z,18.53
2017-03-02T05:24:38.553Z,18.52
2017-03-02T05:25:39.577Z,18.51
2017-03-02T05:26:42.781Z,18.51
2017-03-02T05:27:39.107Z,18.50
2017-03-02T05:28:33.880Z,18.50
2017-03-02T05:29:37.837Z,18.52
2017-03-02T05:30:53.405Z,18.49
2017-03-02T05:31:32.341Z,18.50
2017-03-02T05:32:31.825Z,18.49
2017-03-02T05:33:37.063Z,18.49
2017-03-02T05:34:43.659Z,18.49
2017-03-02T05:35:48.378Z,18.49
2017-03-02T05:36:38.132Z,18.49
2017-03-02T05:37:48.616Z,18.49
2017-03-02T05:38:36.232Z,18.49
2017-03-02T05:39:33.822Z,18.50
2017-03-02T05:40:35.887Z,18.49
2017-03-02T05:41:38.065Z,18.49
2017-03-02T05:42:39.937Z,18.49
2017-03-02T05:43:44.781Z,18.49
2017-03-02T05:44:28.340Z,18.50
2017-03-02T05:45:38.001Z,18.49
2017-03-02T05:46:28.294Z,18.49
2017-03-02T05:47:48.867Z,18.49
2017-03-02T05:48:33.206Z,18.49
2017-03-02T05:49:26.589Z,18.50
2017-03-02T05:50:32.303Z,18.49
2017-03-02T05:51:39.578Z,18.49
2017-03-02T05:52:43.827Z,18.49
2017-03-02T05:54:33.053Z,18.49
2017-03-02T05:55:35.826Z,18.49
2017-03-02T05:56:42.231Z,18.50
2017-03-02T05:57:48.823Z,18.49
2017-03-02T05:58:37.811Z,18.49
2017-03-02T05:59:43.131Z,18.49
2017-03-02T06:00:37.477Z,18.49
2017-03-02T06:01:23.822Z,18.49
2017-03-02T06:02:28.718Z,18.49
2017-03-02T06:03:41.089Z,18.49
2017-03-02T06:04:49.400Z,18.48
2017-03-02T06:05:52.850Z,18.48
2017-03-02T06:06:41.154Z,18.48
2017-03-02T06:07:45.516Z,18.49
2017-03-02T06:08:44.010Z,18.49
2017-03-02T06:09:43.904Z,18.49
2017-03-02T06:10:40.979Z,18.48
2017-03-02T06:11:38.996Z,18.50
2017-03-02T06:12:44.231Z,18.48
2017-03-02T06:13:34.542Z,18.48
2017-03-02T06:14:35.890Z,18.49
2017-03-02T06:15:48.646Z,18.49
2017-03-02T06:16:53.086Z,18.49
2017-03-02T06:17:37.957Z,18.48
2017-03-02T06:18:53.116Z,18.49
2017-03-02T06:19:38.007Z,18.48
2017-03-02T06:20:48.501Z,18.48
2017-03-02T06:21:45.451Z,18.49
2017-03-02T06:22:48.867Z,18.49
2017-03-02T06:23:39.621Z,18.49
2017-03-02T06:24:54.554Z,18.50
2017-03-02T06:25:37.761Z,18.49
2017-03-02T06:26:44.795Z,18.50
2017-03-02T06:27:34.687Z,18.49
2017-03-02T06:28:40.722Z,18.50
2017-03-02T06:29:29.386Z,18.49
2017-03-02T06:30:36.219Z,18.49
2017-03-02T06:31:22.156Z,18.49
2017-03-02T06:32:26.408Z,18.49
2017-03-02T06:33:27.988Z,18.49
2017-03-02T06:34:32.740Z,18.49
2017-03-02T06:35:31.088Z,18.48
2017-03-02T06:36:27.910Z,18.47
2017-03-02T06:37:29.156Z,18.47
2017-03-02T06:38:34.646Z,18.47
2017-03-02T06:39:33.370Z,18.46
2017-03-02T06:40:35.113Z,18.46
2017-03-02T06:41:26.367Z,18.45
2017-03-02T06:42:26.943Z,18.47
2017-03-02T06:43:26.543Z,18.45
2017-03-02T06:44:28.688Z,18.48
2017-03-02T06:45:30.890Z,18.95
2017-03-02T06:46:33.140Z,18.99
2017-03-02T06:47:32.162Z,19.02
2017-03-02T06:48:38.095Z,18.68
2017-03-02T06:49:24.519Z,18.53
2017-03-02T06:50:22.320Z,18.49
2017-03-02T06:51:22.618Z,18.46
2017-03-02T06:52:26.199Z,18.44
2017-03-02T06:53:29.128Z,18.43
2017-03-02T06:54:28.463Z,18.43
2017-03-02T06:55:30.048Z,18.43
2017-03-02T06:56:28.697Z,18.42
2017-03-02T06:57:33.930Z,18.51
2017-03-02T06:58:26.603Z,18.88
2017-03-02T06:59:36.633Z,18.47
2017-03-02T07:00:28.403Z,18.45
2017-03-02T07:01:29.545Z,18.42
2017-03-02T07:02:26.991Z,18.42
2017-03-02T07:03:27.199Z,18.41
2017-03-02T07:04:28.662Z,18.41
2017-03-02T07:05:31.720Z,18.41
2017-03-02T07:06:31.714Z,18.40
2017-03-02T07:07:34.800Z,18.41
2017-03-02T07:08:29.258Z,18.41
2017-03-02T07:09:33.477Z,18.40
2017-03-02T07:10:33.807Z,18.41
2017-03-02T07:11:27.570Z,18.39
2017-03-02T07:12:53.435Z,18.39
2017-03-02T07:13:32.071Z,18.40
2017-03-02T07:14:49.130Z,18.39
2017-03-02T07:15:42.401Z,18.39
2017-03-02T07:16:30.307Z,18.39
2017-03-02T07:17:33.146Z,18.40
2017-03-02T07:18:38.726Z,18.39
2017-03-02T07:19:38.431Z,18.39
2017-03-02T07:20:48.175Z,18.39
2017-03-02T07:21:38.401Z,18.40
2017-03-02T07:22:39.667Z,18.39
2017-03-02T07:23:35.716Z,18.40
2017-03-02T07:24:36.468Z,18.40
2017-03-02T07:25:40.610Z,18.40
2017-03-02T07:26:34.648Z,18.41
2017-03-02T07:27:33.648Z,18.40
2017-03-02T07:28:43.505Z,18.40
2017-03-02T07:29:42.189Z,18.40
2017-03-02T07:30:36.853Z,18.41
2017-03-02T07:31:36.631Z,18.40
2017-03-02T07:32:42.695Z,18.40
2017-03-02T07:33:49.336Z,18.40
2017-03-02T07:34:48.563Z,18.40
2017-03-02T07:36:38.801Z,18.40
2017-03-02T07:37:42.430Z,18.40
2017-03-02T07:38:47.834Z,18.41
2017-03-02T07:39:37.359Z,18.40
2017-03-02T07:40:36.899Z,18.40
2017-03-02T07:41:43.186Z,18.40
2017-03-02T07:42:42.217Z,18.91
2017-03-02T07:43:49.391Z,18.96
2017-03-02T07:44:42.548Z,18.99
2017-03-02T07:45:42.295Z,19.01
2017-03-02T07:46:42.152Z,18.62
2017-03-02T07:47:33.403Z,18.52
2017-03-02T07:48:34.185Z,18.47
2017-03-02T07:49:48.146Z,18.46
2017-03-02T07:50:43.153Z,18.40
2017-03-02T07:51:46.224Z,18.19
2017-03-02T07:52:46.947Z,17.98
2017-03-02T07:53:42.233Z,17.78
2017-03-02T07:54:33.761Z,17.50
2017-03-02T07:55:42.146Z,17.35
2017-03-02T07:56:34.430Z,17.29
2017-03-02T07:57:40.136Z,17.31
2017-03-02T07:58:36.465Z,17.37
2017-03-02T07:59:51.202Z,17.47
2017-03-02T08:00:45.433Z,17.56
2017-03-02T08:01:48.602Z,17.64
2017-03-02T08:02:49.953Z,17.70
2017-03-02T08:03:55.151Z,17.76
2017-03-02T08:04:48.536Z,17.82
2017-03-02T08:05:49.258Z,17.88
2017-03-02T08:06:34.388Z,17.92
2017-03-02T08:07:39.395Z,17.97
2017-03-02T08:08:44.944Z,18.02
2017-03-02T08:09:35.962Z,18.05
2017-03-02T08:10:40.863Z,18.09
2017-03-02T08:11:52.148Z,18.12
2017-03-02T08:12:41.205Z,18.14
2017-03-02T08:13:37.872Z,18.16
2017-03-02T08:14:41.492Z,18.17
2017-03-02T08:15:34.935Z,18.18
2017-03-02T08:16:38.160Z,18.20
2017-03-02T08:17:39.352Z,18.20
2017-03-02T08:18:52.802Z,18.21
2017-03-02T08:19:40.271Z,18.22
2017-03-02T08:20:41.041Z,18.75
2017-03-02T08:21:39.118Z,18.80
2017-03-02T08:22:39.820Z,18.84
2017-03-02T08:23:34.621Z,18.87
2017-03-02T08:24:44.204Z,18.89
2017-03-02T08:25:41.128Z,18.89
2017-03-02T08:26:44.443Z,18.91
2017-03-02T08:27:45.120Z,18.91
2017-03-02T08:28:48.268Z,18.92
2017-03-02T08:29:32.444Z,18.91
2017-03-02T08:30:51.611Z,18.92
2017-03-02T08:31:36.263Z,18.91
2017-03-02T08:32:46.499Z,18.90
2017-03-02T08:33:48.453Z,18.89
2017-03-02T08:34:48.185Z,18.39
2017-03-02T08:35:37.672Z,18.33
2017-03-02T08:36:48.258Z,18.30
2017-03-02T08:37:37.679Z,18.28
2017-03-02T08:39:39.844Z,18.24
2017-03-02T08:40:42.099Z,18.23
2017-03-02T08:41:48.403Z,18.22
2017-03-02T08:42:48.342Z,18.22
2017-03-02T08:43:49.530Z,18.23
2017-03-02T08:44:48.727Z,18.23
2017-03-02T08:45:38.929Z,18.24
2017-03-02T08:46:39.058Z,18.25
2017-03-02T08:47:38.636Z,18.26
2017-03-02T08:48:44.091Z,18.26
2017-03-02T08:49:41.112Z,18.27
2017-03-02T08:50:33.230Z,18.27
2017-03-02T08:51:34.502Z,18.27
2017-03-02T08:52:33.594Z,18.26
2017-03-02T08:53:34.646Z,18.26
2017-03-02T08:54:45.030Z,18.27
2017-03-02T08:55:36.098Z,18.27
2017-03-02T08:56:46.874Z,18.27
2017-03-02T08:57:33.762Z,18.28
2017-03-02T08:58:46.348Z,18.28
2017-03-02T08:59:45.702Z,18.29
2017-03-02T09:00:52.620Z,18.29
2017-03-02T09:01:41.071Z,18.30
2017-03-02T09:02:33.634Z,18.31
2017-03-02T09:03:46.254Z,18.31
2017-03-02T09:04:39.453Z,18.32
2017-03-02T09:05:51.942Z,18.32
2017-03-02T09:06:56.194Z,18.32
2017-03-02T09:07:39.522Z,18.32
2017-03-02T09:08:33.623Z,18.33
2017-03-02T09:09:53.300Z,18.33
2017-03-02T09:10:37.409Z,18.34
2017-03-02T09:11:46.235Z,18.35
2017-03-02T09:12:39.388Z,18.35
2017-03-02T09:13:42.084Z,18.36
2017-03-02T09:14:51.625Z,18.36
2017-03-02T09:15:40.452Z,18.37
2017-03-02T09:16:40.000Z,18.37
2017-03-02T09:17:44.250Z,18.36
2017-03-02T09:18:37.789Z,18.37
2017-03-02T09:19:43.491Z,18.37
2017-03-02T09:20:34.946Z,18.36
2017-03-02T09:21:41.975Z,18.36
2017-03-02T09:22:48.364Z,18.36
2017-03-02T09:23:43.538Z,18.36
2017-03-02T09:24:34.751Z,18.36
2017-03-02T09:26:35.164Z,18.37
2017-03-02T09:27:52.370Z,18.36
2017-03-02T09:28:37.490Z,18.36
2017-03-02T09:29:47.225Z,18.37
2017-03-02T09:30:45.616Z,18.37
2017-03-02T09:31:57.052Z,18.38
2017-03-02T09:32:40.514Z,18.38
2017-03-02T09:33:50.502Z,18.37
2017-03-02T09:34:43.647Z,18.38
2017-03-02T09:35:45.622Z,18.38
2017-03-02T09:36:41.943Z,18.38
2017-03-02T09:37:52.867Z,18.38
2017-03-02T09:38:36.232Z,18.39
2017-03-02T09:39:32.640Z,18.40
2017-03-02T09:40:39.354Z,18.39
2017-03-02T09:41:47.772Z,18.39
2017-03-02T09:42:33.957Z,18.43
2017-03-02T09:43:50.551Z,18.40
2017-03-02T09:44:35.387Z,18.40
2017-03-02T09:45:33.228Z,18.39
2017-03-02T09:46:41.765Z,18.39
2017-03-02T09:47:42.672Z,18.39
2017-03-02T09:48:48.982Z,18.40
2017-03-02T09:49:47.113Z,18.40
2017-03-02T09:50:46.336Z,18.40
2017-03-02T09:51:38.065Z,18.41
2017-03-02T09:52:38.065Z,18.40
2017-03-02T09:53:44.379Z,18.40
2017-03-02T09:55:33.299Z,18.41
2017-03-02T09:56:48.107Z,18.41
2017-03-02T09:57:43.461Z,18.41
2017-03-02T09:58:51.949Z,18.41
2017-03-02T09:59:41.061Z,18.41
2017-03-02T10:00:40.710Z,18.41
2017-03-02T10:01:43.407Z,18.41
2017-03-02T10:02:37.742Z,18.41
2017-03-02T10:03:45.122Z,18.41
2017-03-02T10:04:44.207Z,18.41
2017-03-02T10:05:44.173Z,18.41
2017-03-02T10:06:49.232Z,18.41
2017-03-02T10:07:48.095Z,18.42
2017-03-02T10:08:48.847Z,18.42
2017-03-02T10:09:48.096Z,18.42
2017-03-02T10:10:42.626Z,18.42
2017-03-02T10:11:52.985Z,18.42
2017-03-02T10:12:39.534Z,18.43
2017-03-02T10:13:53.764Z,18.43
2017-03-02T10:14:44.132Z,18.43
2017-03-02T10:15:39.291Z,18.43
2017-03-02T10:16:38.395Z,18.49
2017-03-02T10:17:38.281Z,18.43
2017-03-02T10:18:57.987Z,18.43
2017-03-02T10:19:41.959Z,18.42
2017-03-02T10:20:43.450Z,18.43
2017-03-02T10:21:40.627Z,18.43
2017-03-02T10:22:48.349Z,18.43
2017-03-02T10:23:37.818Z,18.44
2017-03-02T10:24:46.651Z,18.43
2017-03-02T10:25:50.178Z,18.44
2017-03-02T10:26:46.237Z,18.44
2017-03-02T10:27:46.237Z,18.44
2017-03-02T10:28:41.078Z,18.44
2017-03-02T10:29:42.271Z,18.44
2017-03-02T10:30:29.360Z,18.44
2017-03-02T10:31:43.636Z,18.44
2017-03-02T10:32:51.364Z,18.44
2017-03-02T10:33:49.912Z,18.44
2017-03-02T10:34:38.507Z,18.44
2017-03-02T10:35:33.630Z,18.44
2017-03-02T10:36:36.570Z,18.44
2017-03-02T10:37:41.000Z,18.96
2017-03-02T10:38:41.167Z,19.00
2017-03-02T10:39:28.231Z,19.03
2017-03-02T10:40:39.236Z,19.05
2017-03-02T10:41:49.247Z,19.05
2017-03-02T10:42:47.531Z,19.06
2017-03-02T10:43:46.554Z,19.06
2017-03-02T10:44:41.853Z,19.06
2017-03-02T10:45:47.747Z,19.07
2017-03-02T10:46:43.782Z,19.07
2017-03-02T10:47:50.138Z,19.08
2017-03-02T10:48:40.877Z,19.07
2017-03-02T10:49:45.165Z,19.07
2017-03-02T10:50:40.729Z,19.08
2017-03-02T10:51:47.161Z,19.07
2017-03-02T10:52:36.608Z,19.08
2017-03-02T10:53:42.962Z,19.08
2017-03-02T10:54:37.691Z,18.58
2017-03-02T10:55:42.632Z,18.52
2017-03-02T10:56:38.891Z,18.50
2017-03-02T10:57:49.549Z,18.49
2017-03-02T10:58:38.312Z,18.49
2017-03-02T10:59:33.139Z,18.48
2017-03-02T11:00:36.515Z,18.47
2017-03-02T11:01:57.960Z,18.47
2017-03-02T11:02:53.076Z,18.47
2017-03-02T11:03:42.287Z,18.47
2017-03-02T11:04:46.550Z,18.46
2017-03-02T11:05:48.725Z,18.46
2017-03-02T11:06:37.667Z,18.46
2017-03-02T11:07:43.263Z,18.47
2017-03-02T11:08:48.882Z,18.51
2017-03-02T11:09:50.099Z,18.46
2017-03-02T11:10:46.431Z,18.46
2017-03-02T11:11:47.350Z,18.46
2017-03-02T11:12:38.531Z,18.46
2017-03-02T11:13:38.720Z,18.98
2017-03-02T11:14:44.140Z,19.03
2017-03-02T11:15:38.377Z,19.04
2017-03-02T11:16:38.768Z,19.05
2017-03-02T11:17:38.649Z,19.06
2017-03-02T11:18:44.436Z,18.56
2017-03-02T11:19:43.888Z,18.52
2017-03-02T11:20:38.941Z,18.50
2017-03-02T11:21:48.527Z,18.49
2017-03-02T11:22:47.456Z,18.49
2017-03-02T11:23:37.938Z,18.48
2017-03-02T11:24:48.927Z,18.48
2017-03-02T11:25:48.470Z,18.48
2017-03-02T11:26:38.249Z,18.48
2017-03-02T11:27:43.706Z,18.48
2017-03-02T11:28:52.290Z,18.48
2017-03-02T11:29:46.949Z,18.48
2017-03-02T11:31:39.784Z,18.48
2017-03-02T11:32:43.512Z,18.49
2017-03-02T11:33:41.868Z,18.48
2017-03-02T11:34:47.245Z,18.48
2017-03-02T11:35:40.937Z,18.48
2017-03-02T11:36:43.971Z,18.49
2017-03-02T11:37:45.121Z,18.48
2017-03-02T11:38:42.934Z,18.48
2017-03-02T11:39:31.995Z,18.48
2017-03-02T11:40:50.235Z,18.48
2017-03-02T11:41:38.931Z,18.49
2017-03-02T11:42:40.766Z,18.49
2017-03-02T11:43:46.306Z,18.50
2017-03-02T11:44:44.994Z,18.49
2017-03-02T11:45:45.776Z,18.49
2017-03-02T11:46:54.084Z,18.49
2017-03-02T11:47:38.339Z,18.49
2017-03-02T11:48:44.547Z,18.49
2017-03-02T11:49:42.613Z,18.50
2017-03-02T11:50:52.376Z,18.49
2017-03-02T11:51:42.133Z,18.49
2017-03-02T11:52:49.272Z,18.48
2017-03-02T11:53:48.926Z,18.48
2017-03-02T11:54:53.500Z,18.48
2017-03-02T11:55:46.177Z,18.48
2017-03-02T11:56:58.807Z,18.49
2017-03-02T11:57:39.701Z,18.49
2017-03-02T11:58:58.425Z,18.49
2017-03-02T11:59:41.468Z,18.49
2017-03-02T12:00:33.567Z,18.50
2017-03-02T12:01:52.020Z,18.49
2017-03-02T12:02:37.930Z,18.50
2017-03-02T12:03:43.426Z,18.50
2017-03-02T12:04:44.274Z,18.50
2017-03-02T12:05:42.682Z,18.51
2017-03-02T12:06:38.069Z,18.50
2017-03-02T12:07:53.195Z,18.50
2017-03-02T12:08:38.606Z,18.50
2017-03-02T12:09:43.548Z,18.49
2017-03-02T12:10:34.413Z,18.49
2017-03-02T12:11:39.390Z,18.50
2017-03-02T12:12:48.553Z,18.50
2017-03-02T12:13:44.152Z,18.51
2017-03-02T12:14:44.017Z,18.52
2017-03-02T12:15:43.954Z,18.51
2017-03-02T12:16:35.960Z,18.51
2017-03-02T12:17:46.100Z,18.51
2017-03-02T12:18:41.041Z,18.52
2017-03-02T12:19:46.284Z,18.52
2017-03-02T12:20:35.685Z,18.52
2017-03-02T12:21:53.775Z,18.52
2017-03-02T12:22:47.250Z,18.52
2017-03-02T12:23:56.210Z,18.52
2017-03-02T12:24:50.507Z,18.52
2017-03-02T12:25:46.834Z,18.53
2017-03-02T12:26:37.444Z,18.53
2017-03-02T12:27:43.410Z,18.53
2017-03-02T12:28:44.007Z,18.53
2017-03-02T12:29:48.972Z,18.53
2017-03-02T12:30:37.439Z,18.53
2017-03-02T12:31:40.374Z,18.53
2017-03-02T12:32:43.225Z,18.53
2017-03-02T12:33:35.494Z,18.54
2017-03-02T12:34:38.322Z,18.54
2017-03-02T12:35:32.563Z,18.53
2017-03-02T12:36:48.314Z,18.53
2017-03-02T12:37:38.262Z,18.54
2017-03-02T12:38:43.810Z,18.55
2017-03-02T12:39:38.917Z,18.54
2017-03-02T12:40:48.797Z,18.55
2017-03-02T12:41:48.408Z,18.54
2017-03-02T12:42:52.268Z,18.54
2017-03-02T12:43:40.901Z,18.55
2017-03-02T12:44:48.604Z,18.55
2017-03-02T12:45:38.471Z,18.54
2017-03-02T12:46:43.788Z,18.58
2017-03-02T12:47:37.906Z,18.55
2017-03-02T12:48:43.555Z,18.54
2017-03-02T12:49:53.373Z,18.55
2017-03-02T12:50:54.343Z,18.55
2017-03-02T12:51:42.295Z,18.56
2017-03-02T12:52:46.654Z,18.56
2017-03-02T12:53:46.753Z,18.55
2017-03-02T12:54:48.561Z,18.55
2017-03-02T12:55:38.488Z,18.55
2017-03-02T12:56:46.755Z,18.55
2017-03-02T12:57:46.744Z,18.56
2017-03-02T12:58:56.358Z,18.56
2017-03-02T12:59:34.768Z,18.57